createdAt,value
2019-05-10T00:02:10.062Z,55.86
2019-05-10T00:04:55.557Z,55.86
2019-05-10T00:07:41.135Z,55.95
2019-05-10T00:10:07.822Z,55.95
2019-05-10T00:12:49.228Z,56.07
2019-05-10T00:15:20.178Z,56.22
2019-05-10T00:17:47.252Z,56.28
2019-05-10T00:20:14.324Z,56.39
2019-05-10T00:22:41.431Z,56.49
2019-05-10T00:25:08.515Z,56.60
2019-05-10T00:27:35.588Z,56.77
2019-05-10T00:30:03.089Z,56.74
2019-05-10T00:32:30.166Z,56.81
2019-05-10T00:34:57.238Z,57.04
2019-05-10T00:37:24.341Z,57.08
2019-05-10T00:39:51.430Z,57.09
2019-05-10T00:42:18.503Z,57.31
2019-05-10T00:44:45.574Z,57.11
2019-05-10T00:47:12.650Z,57.21
2019-05-10T00:49:39.727Z,57.34
2019-05-10T00:52:08.602Z,57.38
2019-05-10T00:54:35.726Z,57.42
2019-05-10T00:57:02.790Z,57.53
2019-05-10T00:59:29.898Z,57.60
2019-05-10T01:01:56.971Z,57.66
2019-05-10T01:04:24.038Z,57.70
2019-05-10T01:06:51.118Z,57.69
2019-05-10T01:09:18.187Z,57.79
2019-05-10T01:11:45.266Z,57.80
2019-05-10T01:14:12.428Z,57.84
2019-05-10T01:16:39.535Z,57.88
2019-05-10T01:19:06.607Z,57.88
2019-05-10T01:21:33.684Z,57.97
2019-05-10T01:24:01.990Z,58.00
2019-05-10T01:26:30.154Z,58.00
2019-05-10T01:28:57.231Z,58.06
2019-05-10T01:31:24.408Z,58.15
2019-05-10T01:33:51.495Z,58.25
2019-05-10T01:36:22.190Z,57.99
2019-05-10T01:38:49.271Z,57.88
2019-05-10T01:41:16.350Z,57.86
2019-05-10T01:43:43.422Z,58.00
2019-05-10T01:46:10.504Z,58.17
2019-05-10T01:48:37.572Z,58.31
2019-05-10T01:51:04.650Z,58.43
2019-05-10T01:53:32.829Z,58.61
2019-05-10T01:56:00.064Z,58.68
2019-05-10T01:58:27.092Z,58.74
2019-05-10T02:00:54.180Z,58.81
2019-05-10T02:03:21.301Z,58.88
2019-05-10T02:05:48.382Z,58.92
2019-05-10T02:08:15.456Z,58.92
2019-05-10T02:10:42.534Z,58.94
2019-05-10T02:13:09.619Z,59.00
2019-05-10T02:15:37.402Z,59.01
2019-05-10T02:18:04.507Z,59.10
2019-05-10T02:20:31.575Z,59.09
2019-05-10T02:22:58.692Z,59.14
2019-05-10T02:25:25.768Z,59.14
2019-05-10T02:27:52.876Z,59.15
2019-05-10T02:30:20.759Z,59.13
2019-05-10T02:32:47.876Z,59.14
2019-05-10T02:35:15.370Z,59.08
2019-05-10T02:37:42.480Z,59.08
2019-05-10T02:40:09.656Z,59.11
2019-05-10T02:42:36.737Z,59.18
2019-05-10T02:45:04.400Z,59.23
2019-05-10T02:47:31.483Z,59.35
2019-05-10T02:49:59.382Z,59.44
2019-05-10T02:52:26.848Z,59.53
2019-05-10T02:54:54.744Z,59.66
2019-05-10T02:57:22.232Z,59.67
2019-05-10T02:59:49.840Z,59.77
2019-05-10T03:02:17.294Z,60.00
2019-05-10T03:04:45.659Z,60.22
2019-05-10T03:07:15.932Z,60.34
2019-05-10T03:09:47.547Z,60.35
2019-05-10T03:12:25.352Z,60.36
2019-05-10T03:14:54.037Z,60.37
2019-05-10T03:17:21.931Z,60.42
2019-05-10T03:19:51.809Z,60.45
2019-05-10T03:22:20.557Z,60.51
2019-05-10T03:24:47.660Z,60.58
2019-05-10T03:27:14.739Z,60.62
2019-05-10T03:29:41.815Z,60.73
2019-05-10T03:32:10.208Z,60.76
2019-05-10T03:34:37.297Z,60.77
2019-05-10T03:37:04.360Z,60.68
2019-05-10T03:39:31.448Z,60.79
2019-05-10T03:41:59.017Z,60.77
2019-05-10T03:44:26.121Z,60.82
2019-05-10T03:46:53.195Z,60.79
2019-05-10T03:49:20.287Z,60.74
2019-05-10T03:51:47.346Z,60.83
2019-05-10T03:54:14.425Z,60.77
2019-05-10T03:56:41.509Z,60.70
2019-05-10T03:59:08.589Z,60.67
2019-05-10T04:01:35.694Z,60.72
2019-05-10T04:04:03.794Z,60.68
2019-05-10T04:06:30.881Z,60.69
2019-05-10T04:08:57.956Z,60.64
2019-05-10T04:11:25.033Z,60.71
2019-05-10T04:13:52.115Z,60.72
2019-05-10T04:16:19.187Z,60.73
2019-05-10T04:18:48.347Z,60.65
2019-05-10T04:21:15.507Z,60.67
2019-05-10T04:23:42.584Z,60.63
2019-05-10T04:26:09.657Z,60.62
2019-05-10T04:28:36.730Z,60.70
2019-05-10T04:31:05.603Z,60.73
2019-05-10T04:33:32.690Z,60.59
2019-05-10T04:35:59.770Z,60.38
2019-05-10T04:38:26.892Z,60.43
2019-05-10T04:40:53.964Z,60.50
2019-05-10T04:43:21.056Z,60.40
2019-05-10T04:45:48.227Z,60.36
2019-05-10T04:48:15.329Z,60.35
2019-05-10T04:50:42.407Z,60.33
2019-05-10T04:53:11.395Z,60.29
2019-05-10T04:55:38.512Z,60.27
2019-05-10T04:58:05.537Z,60.21
2019-05-10T05:00:32.627Z,60.16
2019-05-10T05:02:59.763Z,60.15
2019-05-10T05:05:26.906Z,60.16
2019-05-10T05:07:53.980Z,59.99
2019-05-10T05:10:21.058Z,59.92
2019-05-10T05:12:48.171Z,59.89
2019-05-10T05:15:15.448Z,59.86
2019-05-10T05:17:43.673Z,59.86
2019-05-10T05:20:10.987Z,59.76
2019-05-10T05:22:38.066Z,59.67
2019-05-10T05:25:05.297Z,59.59
2019-05-10T05:27:32.379Z,59.57
2019-05-10T05:29:59.454Z,59.60
2019-05-10T05:32:26.523Z,59.56
2019-05-10T05:34:53.582Z,59.33
2019-05-10T05:37:20.656Z,59.18
2019-05-10T05:39:47.744Z,58.95
2019-05-10T05:42:14.806Z,58.76
2019-05-10T05:44:41.882Z,58.59
2019-05-10T05:47:09.031Z,58.57
2019-05-10T05:49:36.071Z,58.55
2019-05-10T05:52:03.172Z,58.37
2019-05-10T05:54:30.217Z,58.17
2019-05-10T05:56:57.309Z,57.81
2019-05-10T05:59:26.287Z,57.59
2019-05-10T06:01:53.355Z,57.33
2019-05-10T06:04:20.460Z,57.12
2019-05-10T06:06:47.529Z,56.95
2019-05-10T06:09:14.609Z,56.79
2019-05-10T06:11:41.669Z,56.51
2019-05-10T06:14:11.343Z,56.45
2019-05-10T06:16:37.773Z,56.36
2019-05-10T06:19:04.842Z,56.22
2019-05-10T06:21:31.937Z,56.08
2019-05-10T06:23:59.621Z,55.96
2019-05-10T06:26:28.544Z,55.78
2019-05-10T06:28:59.530Z,55.69
2019-05-10T06:31:24.803Z,55.08
2019-05-10T06:33:51.885Z,55.05
2019-05-10T06:36:18.965Z,55.07
2019-05-10T06:38:51.195Z,55.07
2019-05-10T06:41:19.228Z,54.98
2019-05-10T06:43:51.414Z,54.95
2019-05-10T06:46:15.484Z,54.85
2019-05-10T06:48:42.545Z,54.77
2019-05-10T06:51:12.337Z,54.80
2019-05-10T06:53:42.171Z,54.73
2019-05-10T06:56:07.569Z,54.70
2019-05-10T06:58:36.457Z,54.42
2019-05-10T07:01:03.596Z,54.43
2019-05-10T07:03:30.732Z,54.29
2019-05-10T07:05:57.820Z,54.07
2019-05-10T07:08:24.926Z,54.00
2019-05-10T07:10:51.998Z,53.92
2019-05-10T07:13:19.058Z,53.73
2019-05-10T07:15:46.143Z,53.79
2019-05-10T07:18:16.935Z,53.74
2019-05-10T07:20:43.290Z,53.72
2019-05-10T07:23:10.693Z,53.61
2019-05-10T07:25:43.480Z,53.46
2019-05-10T07:28:09.379Z,53.31
2019-05-10T07:30:41.150Z,53.21
2019-05-10T07:33:06.343Z,53.25
2019-05-10T07:35:36.706Z,53.26
2019-05-10T07:38:02.389Z,53.10
2019-05-10T07:40:29.466Z,52.83
2019-05-10T07:42:56.544Z,52.77
2019-05-10T07:45:25.647Z,52.68
2019-05-10T07:47:54.724Z,52.57
2019-05-10T07:50:21.899Z,52.45
2019-05-10T07:52:50.091Z,52.33
2019-05-10T07:55:18.009Z,52.33
2019-05-10T07:57:46.141Z,52.13
2019-05-10T08:00:13.426Z,52.05
2019-05-10T08:02:44.535Z,51.80
2019-05-10T08:05:14.021Z,51.47
2019-05-10T08:07:40.830Z,51.28
2019-05-10T08:10:08.841Z,51.11
2019-05-10T08:12:41.437Z,50.82
2019-05-10T08:15:08.601Z,50.34
2019-05-10T08:17:41.129Z,50.31
2019-05-10T08:20:20.365Z,49.88
2019-05-10T08:22:44.221Z,49.81
2019-05-10T08:25:09.351Z,49.24
2019-05-10T08:27:36.431Z,48.93
2019-05-10T08:30:20.776Z,48.71
2019-05-10T08:32:34.874Z,48.51
2019-05-10T08:35:05.083Z,48.41
2019-05-10T08:37:37.386Z,48.26
2019-05-10T08:40:02.989Z,48.31
2019-05-10T08:42:43.727Z,48.24
2019-05-10T08:45:03.585Z,47.97
2019-05-10T08:47:28.009Z,47.43
2019-05-10T08:50:12.044Z,47.32
2019-05-10T08:52:30.838Z,47.07
2019-05-10T08:54:55.586Z,46.89
2019-05-10T08:57:22.664Z,46.72
2019-05-10T09:00:02.235Z,46.62
2019-05-10T09:02:28.892Z,46.65
2019-05-10T09:04:52.925Z,46.63
2019-05-10T09:07:20.232Z,46.29
2019-05-10T09:09:50.083Z,46.12
2019-05-10T09:12:16.344Z,46.08
2019-05-10T09:14:44.087Z,45.98
2019-05-10T09:17:14.769Z,45.46
2019-05-10T09:19:41.706Z,45.44
2019-05-10T09:22:09.115Z,45.51
2019-05-10T09:24:43.239Z,45.32
2019-05-10T09:27:05.171Z,45.06
2019-05-10T09:29:37.226Z,45.07
2019-05-10T09:32:06.228Z,44.96
2019-05-10T09:34:32.298Z,45.01
2019-05-10T09:36:59.188Z,45.12
2019-05-10T09:39:26.259Z,45.01
2019-05-10T09:41:53.325Z,45.04
2019-05-10T09:44:22.894Z,44.63
2019-05-10T09:46:52.301Z,44.42
2019-05-10T09:49:19.051Z,44.00
2019-05-10T09:51:46.126Z,44.06
2019-05-10T09:54:13.252Z,44.03
2019-05-10T09:56:44.360Z,43.95
2019-05-10T09:59:09.326Z,43.63
2019-05-10T10:01:37.117Z,43.51
2019-05-10T10:04:04.420Z,43.24
2019-05-10T10:06:31.502Z,43.49
2019-05-10T10:09:00.954Z,43.37
2019-05-10T10:11:27.907Z,43.37
2019-05-10T10:13:59.020Z,42.95
2019-05-10T10:16:23.955Z,42.51
2019-05-10T10:18:51.039Z,42.26
2019-05-10T10:21:26.982Z,42.06
2019-05-10T10:23:47.224Z,42.11
2019-05-10T10:26:20.361Z,41.97
2019-05-10T10:28:43.263Z,42.05
2019-05-10T10:31:10.442Z,42.07
2019-05-10T10:33:42.463Z,42.22
2019-05-10T10:36:10.707Z,42.24
2019-05-10T10:38:45.187Z,42.15
2019-05-10T10:41:08.265Z,42.51
2019-05-10T10:43:37.069Z,42.75
2019-05-10T10:46:04.421Z,42.73
2019-05-10T10:48:31.489Z,42.39
2019-05-10T10:51:00.363Z,42.51
2019-05-10T10:53:28.194Z,42.72
2019-05-10T10:56:02.481Z,42.49
2019-05-10T10:58:24.694Z,42.60
2019-05-10T11:00:51.782Z,42.53
2019-05-10T11:03:23.963Z,42.71
2019-05-10T11:05:47.851Z,42.65
2019-05-10T11:08:14.966Z,42.85
2019-05-10T11:10:43.026Z,42.46
2019-05-10T11:13:18.315Z,42.45
2019-05-10T11:15:41.783Z,41.96
2019-05-10T11:18:10.533Z,41.84
2019-05-10T11:20:41.987Z,41.78
2019-05-10T11:23:06.631Z,41.58
2019-05-10T11:25:33.660Z,41.66
2019-05-10T11:28:01.692Z,41.30
2019-05-10T11:30:29.106Z,41.10
2019-05-10T11:32:56.191Z,41.53
2019-05-10T11:35:30.331Z,41.26
2019-05-10T11:37:52.360Z,40.81
2019-05-10T11:40:29.822Z,40.53
2019-05-10T11:42:50.913Z,40.58
2019-05-10T11:45:18.160Z,40.53
2019-05-10T11:47:48.055Z,40.69
2019-05-10T11:50:27.568Z,40.89
2019-05-10T11:52:43.638Z,40.77
2019-05-10T11:55:11.735Z,40.75
2019-05-10T11:57:43.850Z,40.87
2019-05-10T12:00:14.721Z,40.98
2019-05-10T12:02:45.888Z,41.07
2019-05-10T12:05:16.648Z,41.30
2019-05-10T12:07:45.468Z,41.50
2019-05-10T12:10:16.989Z,41.57
2019-05-10T12:12:50.524Z,41.78
2019-05-10T12:15:04.681Z,41.81
2019-05-10T12:17:31.961Z,41.81
2019-05-10T12:20:02.239Z,41.93
2019-05-10T12:25:20.769Z,41.99
2019-05-10T12:26:16.349Z,41.98
2019-05-10T12:27:34.865Z,41.90
2019-05-10T12:29:59.538Z,41.89
2019-05-10T12:32:26.969Z,41.91
2019-05-10T12:34:56.513Z,41.88
2019-05-10T12:37:21.946Z,42.10
2019-05-10T12:39:52.892Z,42.23
2019-05-10T12:42:18.027Z,42.47
2019-05-10T12:44:47.989Z,42.59
2019-05-10T12:47:15.186Z,42.71
2019-05-10T12:49:42.277Z,42.20
2019-05-10T12:52:14.173Z,42.37
2019-05-10T12:54:38.294Z,42.51
2019-05-10T12:57:05.382Z,42.54
2019-05-10T12:59:34.941Z,42.61
2019-05-10T13:02:04.526Z,42.73
2019-05-10T13:04:40.527Z,42.89
2019-05-10T13:07:02.300Z,42.93
2019-05-10T13:09:40.046Z,43.00
2019-05-10T13:12:04.016Z,43.11
2019-05-10T13:14:29.203Z,43.20
2019-05-10T13:16:56.348Z,43.31
2019-05-10T13:19:23.423Z,43.42
2019-05-10T13:21:53.649Z,43.55
2019-05-10T13:24:19.472Z,43.60
2019-05-10T13:26:46.544Z,43.65
2019-05-10T13:29:13.613Z,43.57
2019-05-10T13:31:42.638Z,43.50
2019-05-10T13:34:09.688Z,43.52
2019-05-10T13:36:38.789Z,43.49
2019-05-10T13:39:06.114Z,43.51
2019-05-10T13:41:34.262Z,43.65
2019-05-10T13:44:04.953Z,43.89
2019-05-10T13:46:30.347Z,44.13
2019-05-10T13:48:57.433Z,44.27
2019-05-10T13:51:28.424Z,44.36
2019-05-10T13:53:58.928Z,44.47
2019-05-10T13:56:24.526Z,44.61
2019-05-10T13:58:51.678Z,44.67
2019-05-10T14:01:18.765Z,44.74
2019-05-10T14:03:53.793Z,44.79
2019-05-10T14:06:14.911Z,44.70
2019-05-10T14:08:47.592Z,44.70
2019-05-10T14:11:12.805Z,44.75
2019-05-10T14:13:41.396Z,44.70
2019-05-10T14:16:18.648Z,44.64
2019-05-10T14:18:40.834Z,44.68
2019-05-10T14:21:07.904Z,44.72
2019-05-10T14:23:37.200Z,44.70
2019-05-10T14:26:09.247Z,44.81
2019-05-10T14:28:32.979Z,44.90
2019-05-10T14:31:00.042Z,45.07
2019-05-10T14:33:28.952Z,45.16
2019-05-10T14:36:01.308Z,45.09
2019-05-10T14:38:25.160Z,45.18
2019-05-10T14:40:52.252Z,44.96
2019-05-10T14:43:19.340Z,44.63
2019-05-10T14:45:46.416Z,44.69
2019-05-10T14:48:13.479Z,44.62
2019-05-10T14:50:40.640Z,44.47
2019-05-10T14:53:07.708Z,44.30
2019-05-10T14:55:36.835Z,44.20
2019-05-10T14:58:03.799Z,44.23
2019-05-10T15:00:31.008Z,44.26
2019-05-10T15:03:02.065Z,44.20
2019-05-10T15:05:27.104Z,44.12
2019-05-10T15:07:54.196Z,44.13
2019-05-10T15:10:21.272Z,44.05
2019-05-10T15:12:49.474Z,44.16
2019-05-10T15:15:21.842Z,44.33
2019-05-10T15:18:02.139Z,44.45
2019-05-10T15:20:30.337Z,44.46
2019-05-10T15:23:01.680Z,44.61
2019-05-10T15:25:54.473Z,44.81
2019-05-10T15:28:05.380Z,44.94
2019-05-10T15:30:32.443Z,45.11
2019-05-10T15:33:01.874Z,45.40
2019-05-10T15:35:29.030Z,45.42
2019-05-10T15:37:57.198Z,45.35
2019-05-10T15:40:26.563Z,45.26
2019-05-10T15:42:53.639Z,45.22
2019-05-10T15:45:22.524Z,45.26
2019-05-10T15:47:51.764Z,45.30
2019-05-10T15:50:22.143Z,45.37
2019-05-10T15:52:49.232Z,45.47
2019-05-10T15:55:26.731Z,45.63
2019-05-10T15:57:51.684Z,46.07
2019-05-10T16:00:25.870Z,46.14
2019-05-10T16:02:54.508Z,46.42
2019-05-10T16:05:29.285Z,46.91
2019-05-10T16:07:51.507Z,47.22
2019-05-10T16:10:28.544Z,47.69
2019-05-10T16:12:53.803Z,47.91
2019-05-10T16:15:23.642Z,47.94
2019-05-10T16:17:53.622Z,48.26
2019-05-10T16:20:22.470Z,48.71
2019-05-10T16:22:49.548Z,49.08
2019-05-10T16:25:16.634Z,49.16
2019-05-10T16:27:46.678Z,49.46
2019-05-10T16:30:17.747Z,49.60
2019-05-10T16:32:43.394Z,49.71
2019-05-10T16:35:14.773Z,49.88
2019-05-10T16:37:40.426Z,50.53
2019-05-10T16:40:07.815Z,50.62
2019-05-10T16:42:36.066Z,50.96
2019-05-10T16:45:04.623Z,50.88
2019-05-10T16:47:31.684Z,50.67
2019-05-10T16:49:58.762Z,50.85
2019-05-10T16:52:27.727Z,50.67
2019-05-10T16:54:57.754Z,50.36
2019-05-10T16:57:23.836Z,49.96
2019-05-10T16:59:50.968Z,49.50
2019-05-10T17:02:17.988Z,49.16
2019-05-10T17:04:45.134Z,49.02
2019-05-10T17:07:12.786Z,48.75
2019-05-10T17:09:41.293Z,48.70
2019-05-10T17:12:08.373Z,48.78
2019-05-10T17:14:35.483Z,48.96
2019-05-10T17:17:02.587Z,48.98
2019-05-10T17:19:34.075Z,48.97
2019-05-10T17:22:02.727Z,48.75
2019-05-10T17:24:32.928Z,48.29
2019-05-10T17:27:01.146Z,48.16
2019-05-10T17:29:28.290Z,47.93
2019-05-10T17:31:55.366Z,47.96
2019-05-10T17:34:28.979Z,47.88
2019-05-10T17:36:57.792Z,48.07
2019-05-10T17:39:25.912Z,48.34
2019-05-10T17:41:57.545Z,48.46
2019-05-10T17:44:25.824Z,48.59
2019-05-10T17:46:55.502Z,48.61
2019-05-10T17:49:24.697Z,48.53
2019-05-10T17:51:51.859Z,48.50
2019-05-10T17:54:18.942Z,48.59
2019-05-10T17:56:48.327Z,48.65
2019-05-10T17:59:15.412Z,48.61
2019-05-10T18:01:42.473Z,48.67
2019-05-10T18:04:09.546Z,48.72
2019-05-10T18:07:03.765Z,48.79
2019-05-10T18:09:31.950Z,48.76
2019-05-10T18:11:59.046Z,48.65
2019-05-10T18:14:29.394Z,48.52
2019-05-10T18:16:57.834Z,48.43
2019-05-10T18:19:26.485Z,48.40
2019-05-10T18:21:55.056Z,48.46
2019-05-10T18:24:22.679Z,48.58
2019-05-10T18:26:49.888Z,48.85
2019-05-10T18:29:18.817Z,48.95
2019-05-10T18:31:55.108Z,49.12
2019-05-10T18:34:14.870Z,49.52
2019-05-10T18:36:51.524Z,49.81
2019-05-10T18:39:15.566Z,50.17
2019-05-10T18:41:41.501Z,50.25
2019-05-10T18:44:14.164Z,50.28
2019-05-10T18:46:39.120Z,50.78
2019-05-10T18:49:06.209Z,51.50
2019-05-10T18:51:38.708Z,51.59
2019-05-10T18:54:05.908Z,51.64
2019-05-10T18:56:33.272Z,51.98
2019-05-10T18:59:06.864Z,52.11
2019-05-10T19:01:32.793Z,52.17
2019-05-10T19:03:59.754Z,52.44
2019-05-10T19:06:26.829Z,52.55
2019-05-10T19:08:56.135Z,52.68
2019-05-10T19:11:25.323Z,52.73
2019-05-10T19:13:54.180Z,53.30
2019-05-10T19:16:25.852Z,53.27
2019-05-10T19:18:50.538Z,53.35
2019-05-10T19:21:17.654Z,53.43
2019-05-10T19:23:44.743Z,53.61
2019-05-10T19:26:11.916Z,53.80
2019-05-10T19:28:44.855Z,54.06
2019-05-10T19:31:13.406Z,54.30
2019-05-10T19:33:42.323Z,54.50
2019-05-10T19:36:13.142Z,54.67
2019-05-10T19:38:38.465Z,54.87
2019-05-10T19:41:05.644Z,55.00
2019-05-10T19:43:32.713Z,55.20
2019-05-10T19:45:59.927Z,55.35
2019-05-10T19:48:29.211Z,57.71
2019-05-10T19:50:56.023Z,56.84
2019-05-10T19:53:23.111Z,56.60
2019-05-10T19:55:51.528Z,56.49
2019-05-10T19:58:19.167Z,56.52
2019-05-10T20:00:46.264Z,56.88
2019-05-10T20:03:13.335Z,56.75
2019-05-10T20:05:55.924Z,57.22
2019-05-10T20:08:23.061Z,57.12
2019-05-10T20:10:55.146Z,57.41
2019-05-10T20:13:22.243Z,58.02
2019-05-10T20:15:49.351Z,58.37
2019-05-10T20:18:16.459Z,58.31
2019-05-10T20:20:46.398Z,59.02
2019-05-10T20:23:13.499Z,59.21
2019-05-10T20:25:40.607Z,59.12
2019-05-10T20:28:07.711Z,60.31
2019-05-10T20:30:34.788Z,60.16
2019-05-10T20:33:01.984Z,60.16
2019-05-10T20:35:29.059Z,61.28
2019-05-10T20:38:02.229Z,61.40
2019-05-10T20:40:25.203Z,61.11
2019-05-10T20:42:52.363Z,61.69
2019-05-10T20:45:23.468Z,62.24
2019-05-10T20:47:50.626Z,62.31
2019-05-10T20:50:19.010Z,62.66
2019-05-10T20:52:46.242Z,63.37
2019-05-10T20:55:16.862Z,63.60
2019-05-10T20:57:44.000Z,64.07
2019-05-10T21:00:11.202Z,63.92
2019-05-10T21:02:38.385Z,64.33
2019-05-10T21:05:08.199Z,64.21
2019-05-10T21:07:35.266Z,64.27
2019-05-10T21:10:02.385Z,64.14
2019-05-10T21:12:29.476Z,63.81
2019-05-10T21:14:58.605Z,63.38
2019-05-10T21:17:25.984Z,63.14
2019-05-10T21:19:53.052Z,63.12
2019-05-10T21:22:20.175Z,62.86
2019-05-10T21:24:49.480Z,63.00
2019-05-10T21:27:16.474Z,62.90
2019-05-10T21:29:43.562Z,62.88
2019-05-10T21:32:12.446Z,62.91
2019-05-10T21:34:39.564Z,62.86
2019-05-10T21:37:06.658Z,62.77
2019-05-10T21:39:33.853Z,62.65
2019-05-10T21:42:01.010Z,62.71
2019-05-10T21:44:29.218Z,62.78
2019-05-10T21:46:56.306Z,62.91
2019-05-10T21:49:23.387Z,62.88
2019-05-10T21:51:50.473Z,62.93
2019-05-10T21:54:17.552Z,62.99
2019-05-10T21:56:44.723Z,63.02
2019-05-10T21:59:12.895Z,63.03
2019-05-10T22:01:40.044Z,63.09
2019-05-10T22:04:07.124Z,63.15
2019-05-10T22:06:34.643Z,63.25
2019-05-10T22:09:01.732Z,63.23
2019-05-10T22:11:28.802Z,63.24
2019-05-10T22:13:55.882Z,63.29
2019-05-10T22:16:22.959Z,63.32
2019-05-10T22:18:58.674Z,63.34
2019-05-10T22:21:25.790Z,63.45
2019-05-10T22:23:52.865Z,63.50
2019-05-10T22:26:22.693Z,63.54
2019-05-10T22:28:49.847Z,63.58
2019-05-10T22:31:16.922Z,63.56
2019-05-10T22:33:44.002Z,63.58
2019-05-10T22:36:11.067Z,63.60
2019-05-10T22:38:38.152Z,63.66
2019-05-10T22:41:06.239Z,63.71
2019-05-10T22:43:34.423Z,63.77
2019-05-10T22:46:01.511Z,63.89
2019-05-10T22:48:28.654Z,63.96
2019-05-10T22:50:55.781Z,64.03
2019-05-10T22:53:22.883Z,64.23
2019-05-10T22:55:51.155Z,64.32
2019-05-10T22:58:19.346Z,64.39
2019-05-10T23:00:46.428Z,64.37
2019-05-10T23:03:13.535Z,64.42
2019-05-10T23:05:40.620Z,64.45
2019-05-10T23:08:07.724Z,64.50
2019-05-10T23:10:34.810Z,64.55
2019-05-10T23:13:01.897Z,64.56
2019-05-10T23:15:28.982Z,64.57
2019-05-10T23:17:56.071Z,64.59
2019-05-10T23:20:23.195Z,64.60
2019-05-10T23:22:50.308Z,64.64
2019-05-10T23:25:17.385Z,64.66
2019-05-10T23:27:44.471Z,64.73
2019-05-10T23:30:11.769Z,64.71
2019-05-10T23:32:38.904Z,64.68
2019-05-10T23:35:06.198Z,64.76
2019-05-10T23:37:33.279Z,64.76
2019-05-10T23:40:00.387Z,64.81
2019-05-10T23:42:27.463Z,64.84
2019-05-10T23:44:54.545Z,64.87
2019-05-10T23:47:21.694Z,64.93
2019-05-10T23:49:48.763Z,64.96
2019-05-10T23:52:15.839Z,64.94
2019-05-10T23:54:44.123Z,64.97
2019-05-10T23:57:11.220Z,64.97
2019-05-10T23:59:38.311Z,65.06
